createdAt,value
2018-07-23T00:00:18.023Z,988.81
2018-07-23T00:01:24.831Z,988.82
2018-07-23T00:02:31.539Z,988.81
2018-07-23T00:03:38.393Z,988.86
2018-07-23T00:04:45.267Z,988.81
2018-07-23T00:05:51.959Z,988.81
2018-07-23T00:06:58.679Z,988.82
2018-07-23T00:08:05.402Z,988.79
2018-07-23T00:09:12.103Z,988.75
2018-07-23T00:10:18.849Z,988.72
2018-07-23T00:11:25.639Z,988.81
2018-07-23T00:12:32.374Z,988.81
2018-07-23T00:13:39.110Z,988.90
2018-07-23T00:14:45.805Z,988.76
2018-07-23T00:15:52.518Z,988.79
2018-07-23T00:16:59.223Z,988.83
2018-07-23T00:18:06.011Z,988.82
2018-07-23T00:19:12.703Z,988.78
2018-07-23T00:20:19.434Z,988.87
2018-07-23T00:21:26.218Z,988.75
2018-07-23T00:22:32.939Z,988.85
2018-07-23T00:23:39.742Z,988.80
2018-07-23T00:24:46.495Z,988.75
2018-07-23T00:25:53.254Z,988.82
2018-07-23T00:27:00.073Z,988.77
2018-07-23T00:28:06.830Z,988.79
2018-07-23T00:29:13.511Z,988.78
2018-07-23T00:30:20.193Z,988.73
2018-07-23T00:31:26.906Z,988.76
2018-07-23T00:32:33.691Z,988.78
2018-07-23T00:33:40.587Z,988.73
2018-07-23T00:34:47.307Z,988.73
2018-07-23T00:35:54.087Z,988.79
2018-07-23T00:37:00.798Z,988.80
2018-07-23T00:38:07.542Z,988.77
2018-07-23T00:39:14.344Z,988.75
2018-07-23T00:40:21.046Z,988.81
2018-07-23T00:41:27.761Z,988.75
2018-07-23T00:42:34.530Z,988.78
2018-07-23T00:43:41.299Z,988.74
2018-07-23T00:44:48.108Z,988.71
2018-07-23T00:45:54.850Z,988.67
2018-07-23T00:47:01.574Z,988.62
2018-07-23T00:48:08.577Z,988.67
2018-07-23T00:49:15.547Z,988.66
2018-07-23T00:50:22.373Z,988.68
2018-07-23T00:51:29.102Z,988.63
2018-07-23T00:52:35.837Z,988.67
2018-07-23T00:53:42.580Z,988.64
2018-07-23T00:54:49.401Z,988.67
2018-07-23T00:55:56.093Z,988.60
2018-07-23T00:57:02.822Z,988.55
2018-07-23T00:58:09.582Z,988.57
2018-07-23T00:59:16.317Z,988.58
2018-07-23T01:00:23.126Z,988.65
2018-07-23T01:01:29.836Z,988.67
2018-07-23T01:02:36.594Z,988.64
2018-07-23T01:03:43.392Z,988.63
2018-07-23T01:04:50.471Z,988.60
2018-07-23T01:05:57.363Z,988.62
2018-07-23T01:07:04.075Z,988.70
2018-07-23T01:08:10.831Z,988.62
2018-07-23T01:09:17.587Z,988.70
2018-07-23T01:10:24.423Z,988.65
2018-07-23T01:11:31.138Z,988.61
2018-07-23T01:12:37.899Z,988.62
2018-07-23T01:13:44.735Z,988.64
2018-07-23T01:14:51.534Z,988.63
2018-07-23T01:15:58.258Z,988.60
2018-07-23T01:17:04.991Z,988.70
2018-07-23T01:18:11.807Z,988.56
2018-07-23T01:19:18.623Z,988.66
2018-07-23T01:20:25.471Z,988.67
2018-07-23T01:21:32.218Z,988.63
2018-07-23T01:22:39.098Z,988.66
2018-07-23T01:23:46.107Z,988.67
2018-07-23T01:24:52.845Z,988.65
2018-07-23T01:25:59.659Z,988.61
2018-07-23T01:27:06.374Z,988.67
2018-07-23T01:28:13.119Z,988.75
2018-07-23T01:29:19.927Z,988.67
2018-07-23T01:30:26.630Z,988.76
2018-07-23T01:31:33.471Z,988.72
2018-07-23T01:32:40.227Z,988.74
2018-07-23T01:33:46.986Z,988.72
2018-07-23T01:34:53.678Z,988.77
2018-07-23T01:36:00.418Z,988.75
2018-07-23T01:37:07.162Z,988.69
2018-07-23T01:38:14.030Z,988.74
2018-07-23T01:39:20.743Z,988.65
2018-07-23T01:40:27.502Z,988.69
2018-07-23T01:41:34.219Z,988.70
2018-07-23T01:42:41.111Z,988.68
2018-07-23T01:43:47.858Z,988.72
2018-07-23T01:44:54.589Z,988.68
2018-07-23T01:46:01.374Z,988.70
2018-07-23T01:47:08.169Z,988.68
2018-07-23T01:48:15.346Z,988.70
2018-07-23T01:49:22.099Z,988.72
2018-07-23T01:50:28.834Z,988.72
2018-07-23T01:51:35.570Z,988.81
2018-07-23T01:52:42.390Z,988.79
2018-07-23T01:53:49.139Z,988.77
2018-07-23T01:54:56.150Z,988.83
2018-07-23T01:56:02.913Z,988.74
2018-07-23T01:57:09.771Z,988.82
2018-07-23T01:58:16.491Z,988.79
2018-07-23T01:59:23.266Z,988.81
2018-07-23T02:00:29.991Z,988.80
2018-07-23T02:01:36.723Z,988.84
2018-07-23T02:02:43.493Z,988.81
2018-07-23T02:03:50.490Z,988.81
2018-07-23T02:04:57.214Z,988.80
2018-07-23T02:06:03.999Z,988.88
2018-07-23T02:07:10.803Z,988.86
2018-07-23T02:08:17.551Z,988.78
2018-07-23T02:09:24.299Z,988.83
2018-07-23T02:10:31.030Z,988.83
2018-07-23T02:11:37.766Z,988.82
2018-07-23T02:12:44.539Z,988.80
2018-07-23T02:13:51.286Z,988.87
2018-07-23T02:14:58.047Z,988.80
2018-07-23T02:16:04.774Z,988.86
2018-07-23T02:17:11.682Z,988.88
2018-07-23T02:18:18.454Z,988.88
2018-07-23T02:19:25.243Z,988.91
2018-07-23T02:20:32.067Z,988.96
2018-07-23T02:21:38.827Z,988.83
2018-07-23T02:22:45.543Z,988.88
2018-07-23T02:23:52.314Z,988.90
2018-07-23T02:24:59.144Z,988.87
2018-07-23T02:26:05.854Z,988.94
2018-07-23T02:27:12.599Z,988.92
2018-07-23T02:28:19.355Z,988.94
2018-07-23T02:29:26.060Z,988.89
2018-07-23T02:30:32.734Z,988.95
2018-07-23T02:30:58.579Z,988.89
2018-07-23T02:32:05.295Z,988.99
2018-07-23T02:33:12.015Z,989.03
2018-07-23T02:34:18.717Z,989.05
2018-07-23T02:35:25.506Z,989.05
2018-07-23T02:36:32.195Z,989.02
2018-07-23T02:37:38.871Z,989.03
2018-07-23T02:38:45.587Z,988.99
2018-07-23T02:39:52.363Z,989.02
2018-07-23T02:40:59.059Z,988.99
2018-07-23T02:42:05.757Z,989.01
2018-07-23T02:43:12.548Z,988.98
2018-07-23T02:44:19.235Z,988.95
2018-07-23T02:45:25.959Z,988.97
2018-07-23T02:46:32.647Z,988.91
2018-07-23T02:47:39.371Z,988.93
2018-07-23T02:48:46.091Z,988.94
2018-07-23T02:49:52.910Z,988.96
2018-07-23T02:50:59.582Z,988.90
2018-07-23T02:52:06.262Z,988.96
2018-07-23T02:53:13.053Z,988.92
2018-07-23T02:54:19.771Z,988.91
2018-07-23T02:55:26.476Z,988.88
2018-07-23T02:56:33.263Z,988.89
2018-07-23T02:57:39.967Z,988.95
2018-07-23T02:58:46.766Z,988.87
2018-07-23T02:59:53.480Z,988.93
2018-07-23T03:01:00.362Z,988.94
2018-07-23T03:02:07.108Z,988.85
2018-07-23T03:03:13.904Z,988.90
2018-07-23T03:04:20.691Z,988.90
2018-07-23T03:05:27.553Z,988.87
2018-07-23T03:06:34.267Z,988.84
2018-07-23T03:07:40.983Z,988.82
2018-07-23T03:08:47.687Z,988.79
2018-07-23T03:09:54.411Z,988.82
2018-07-23T03:11:01.216Z,988.85
2018-07-23T03:12:07.952Z,988.81
2018-07-23T03:13:15.015Z,988.83
2018-07-23T03:14:21.747Z,988.85
2018-07-23T03:15:28.462Z,988.89
2018-07-23T03:16:35.252Z,988.93
2018-07-23T03:17:41.923Z,988.99
2018-07-23T03:18:48.759Z,988.94
2018-07-23T03:19:55.619Z,988.94
2018-07-23T03:21:02.413Z,988.98
2018-07-23T03:22:09.222Z,988.97
2018-07-23T03:23:15.973Z,989.00
2018-07-23T03:24:22.714Z,988.99
2018-07-23T03:25:29.426Z,988.99
2018-07-23T03:26:36.103Z,989.02
2018-07-23T03:27:42.930Z,989.00
2018-07-23T03:28:49.675Z,989.05
2018-07-23T03:29:56.406Z,989.05
2018-07-23T03:31:03.119Z,989.05
2018-07-23T03:32:09.824Z,989.07
2018-07-23T03:33:16.646Z,989.09
2018-07-23T03:34:23.432Z,989.18
2018-07-23T03:35:30.197Z,989.12
2018-07-23T03:36:37.083Z,989.11
2018-07-23T03:37:43.823Z,989.16
2018-07-23T03:38:50.571Z,989.13
2018-07-23T03:39:57.334Z,989.11
2018-07-23T03:41:04.175Z,989.22
2018-07-23T03:42:10.911Z,989.15
2018-07-23T03:43:17.659Z,989.17
2018-07-23T03:44:24.419Z,989.17
2018-07-23T03:45:31.233Z,989.18
2018-07-23T03:46:37.955Z,989.16
2018-07-23T03:47:44.663Z,989.19
2018-07-23T03:48:51.438Z,989.17
2018-07-23T03:49:58.148Z,989.19
2018-07-23T03:51:04.962Z,989.19
2018-07-23T03:52:11.695Z,989.19
2018-07-23T03:53:18.401Z,989.14
2018-07-23T03:54:25.166Z,989.18
2018-07-23T03:55:31.880Z,989.19
2018-07-23T03:56:38.936Z,989.18
2018-07-23T03:57:45.690Z,989.19
2018-07-23T03:58:52.506Z,989.19
2018-07-23T03:59:59.218Z,989.27
2018-07-23T04:01:06.002Z,989.19
2018-07-23T04:02:12.731Z,989.21
2018-07-23T04:03:19.584Z,989.20
2018-07-23T04:04:26.406Z,989.32
2018-07-23T04:05:33.415Z,989.32
2018-07-23T04:06:40.142Z,989.31
2018-07-23T04:07:47.173Z,989.30
2018-07-23T04:08:53.947Z,989.31
2018-07-23T04:10:00.761Z,989.28
2018-07-23T04:11:07.918Z,989.32
2018-07-23T04:12:14.720Z,989.38
2018-07-23T04:13:21.426Z,989.26
2018-07-23T04:14:28.158Z,989.32
2018-07-23T04:15:34.915Z,989.30
2018-07-23T04:16:41.622Z,989.36
2018-07-23T04:17:48.466Z,989.30
2018-07-23T04:18:55.624Z,989.30
2018-07-23T04:20:02.564Z,989.34
2018-07-23T04:21:09.439Z,989.43
2018-07-23T04:22:16.175Z,989.35
2018-07-23T04:23:22.930Z,989.35
2018-07-23T04:24:29.674Z,989.40
2018-07-23T04:25:36.462Z,989.29
2018-07-23T04:26:43.162Z,989.43
2018-07-23T04:27:49.896Z,989.38
2018-07-23T04:28:56.636Z,989.38
2018-07-23T04:30:03.346Z,989.41
2018-07-23T04:31:10.244Z,989.36
2018-07-23T04:32:16.970Z,989.41
2018-07-23T04:33:23.676Z,989.45
2018-07-23T04:34:30.406Z,989.44
2018-07-23T04:35:37.055Z,989.49
2018-07-23T04:36:43.765Z,989.39
2018-07-23T04:37:50.614Z,989.52
2018-07-23T04:38:57.507Z,989.48
2018-07-23T04:40:04.207Z,989.48
2018-07-23T04:41:10.990Z,989.50
2018-07-23T04:42:17.751Z,989.50
2018-07-23T04:43:24.456Z,989.52
2018-07-23T04:44:31.247Z,989.53
2018-07-23T04:45:38.051Z,989.49
2018-07-23T04:46:44.722Z,989.50
2018-07-23T04:47:51.431Z,989.48
2018-07-23T04:48:58.148Z,989.50
2018-07-23T04:50:04.889Z,989.46
2018-07-23T04:51:11.607Z,989.51
2018-07-23T04:52:18.394Z,989.56
2018-07-23T04:53:25.083Z,989.52
2018-07-23T04:54:31.875Z,989.54
2018-07-23T04:55:38.577Z,989.56
2018-07-23T04:56:45.372Z,989.55
2018-07-23T04:57:52.087Z,989.57
2018-07-23T04:58:58.766Z,989.59
2018-07-23T05:00:05.783Z,989.56
2018-07-23T05:01:12.631Z,989.49
2018-07-23T05:02:19.379Z,989.55
2018-07-23T05:03:26.112Z,989.56
2018-07-23T05:04:32.827Z,989.49
2018-07-23T05:05:39.700Z,989.59
2018-07-23T05:06:46.439Z,989.52
2018-07-23T05:07:53.139Z,989.55
2018-07-23T05:08:59.855Z,989.55
2018-07-23T05:10:06.713Z,989.55
2018-07-23T05:11:13.405Z,989.50
2018-07-23T05:12:20.155Z,989.54
2018-07-23T05:13:26.871Z,989.62
2018-07-23T05:14:33.566Z,989.59
2018-07-23T05:15:40.265Z,989.59
2018-07-23T05:16:47.079Z,989.64
2018-07-23T05:17:53.772Z,989.64
2018-07-23T05:19:00.633Z,989.60
2018-07-23T05:20:07.376Z,989.63
2018-07-23T05:21:14.279Z,989.62
2018-07-23T05:22:20.979Z,989.63
2018-07-23T05:23:27.710Z,989.57
2018-07-23T05:24:34.474Z,989.57
2018-07-23T05:25:41.199Z,989.69
2018-07-23T05:26:47.895Z,989.60
2018-07-23T05:27:54.594Z,989.63
2018-07-23T05:29:01.332Z,989.61
2018-07-23T05:30:08.112Z,989.65
2018-07-23T05:31:14.939Z,989.62
2018-07-23T05:32:21.795Z,989.61
2018-07-23T05:33:28.486Z,989.67
2018-07-23T05:34:35.216Z,989.69
2018-07-23T05:35:42.024Z,989.61
2018-07-23T05:36:48.767Z,989.66
2018-07-23T05:37:55.506Z,989.65
2018-07-23T05:39:02.202Z,989.66
2018-07-23T05:40:09.090Z,989.68
2018-07-23T05:41:15.850Z,989.60
2018-07-23T05:42:22.594Z,989.66
2018-07-23T05:43:29.298Z,989.66
2018-07-23T05:44:36.009Z,989.65
2018-07-23T05:45:42.806Z,989.79
2018-07-23T05:46:49.516Z,989.70
2018-07-23T05:47:56.266Z,989.65
2018-07-23T05:49:03.000Z,989.65
2018-07-23T05:50:09.734Z,989.75
2018-07-23T05:51:16.535Z,989.64
2018-07-23T05:52:23.247Z,989.63
2018-07-23T05:53:29.950Z,989.64
2018-07-23T05:54:36.716Z,989.69
2018-07-23T05:55:43.450Z,989.64
2018-07-23T05:56:50.142Z,989.63
2018-07-23T05:57:56.932Z,989.64
2018-07-23T05:59:03.673Z,989.63
2018-07-23T06:00:10.450Z,989.64
2018-07-23T06:01:17.162Z,989.66
2018-07-23T06:02:24.022Z,989.63
2018-07-23T06:03:30.749Z,989.67
2018-07-23T06:04:37.543Z,989.69
2018-07-23T06:05:44.294Z,989.67
2018-07-23T06:06:51.161Z,989.66
2018-07-23T06:07:57.783Z,989.65
2018-07-23T06:09:04.511Z,989.67
2018-07-23T06:10:11.655Z,989.62
2018-07-23T06:11:18.354Z,989.62
2018-07-23T06:12:25.095Z,989.71
2018-07-23T06:13:31.862Z,989.72
2018-07-23T06:14:38.703Z,989.60
2018-07-23T06:15:45.428Z,989.64
2018-07-23T06:16:52.150Z,989.68
2018-07-23T06:17:58.875Z,989.66
2018-07-23T06:19:05.578Z,989.64
2018-07-23T06:20:12.463Z,989.74
2018-07-23T06:21:19.214Z,989.64
2018-07-23T06:22:25.995Z,989.62
2018-07-23T06:23:32.887Z,989.67
2018-07-23T06:24:40.022Z,989.67
2018-07-23T06:25:46.783Z,989.62
2018-07-23T06:26:53.519Z,989.60
2018-07-23T06:28:00.278Z,989.60
2018-07-23T06:29:07.142Z,989.66
2018-07-23T06:30:13.962Z,989.67
2018-07-23T06:31:20.725Z,989.68
2018-07-23T06:32:27.539Z,989.66
2018-07-23T06:33:34.251Z,989.65
2018-07-23T06:34:40.984Z,989.64
2018-07-23T06:35:47.702Z,989.62
2018-07-23T06:36:54.613Z,989.66
2018-07-23T06:38:01.359Z,989.70
2018-07-23T06:39:08.131Z,989.78
2018-07-23T06:40:15.076Z,989.67
2018-07-23T06:41:21.856Z,989.76
2018-07-23T06:42:28.580Z,989.75
2018-07-23T06:43:35.499Z,989.70
2018-07-23T06:44:42.238Z,989.75
2018-07-23T06:45:49.062Z,989.70
2018-07-23T06:46:55.959Z,989.75
2018-07-23T06:48:03.012Z,989.73
2018-07-23T06:49:09.763Z,989.74
2018-07-23T06:50:16.535Z,989.73
2018-07-23T06:51:23.338Z,989.73
2018-07-23T06:52:30.178Z,989.75
2018-07-23T06:53:36.898Z,989.70
2018-07-23T06:54:43.634Z,989.72
2018-07-23T06:55:50.650Z,989.71
2018-07-23T06:56:57.382Z,989.73
2018-07-23T06:58:04.148Z,989.70
2018-07-23T06:59:10.882Z,989.77
2018-07-23T07:00:17.720Z,989.67
2018-07-23T07:01:24.523Z,989.73
2018-07-23T07:02:36.451Z,989.75
2018-07-23T07:03:38.171Z,989.78
2018-07-23T07:04:44.998Z,989.75
2018-07-23T07:05:51.949Z,989.80
2018-07-23T07:06:58.677Z,989.77
2018-07-23T07:08:05.423Z,989.72
2018-07-23T07:09:12.174Z,989.73
2018-07-23T07:10:18.994Z,989.75
2018-07-23T07:11:25.760Z,989.82
2018-07-23T07:12:32.516Z,989.70
2018-07-23T07:13:39.363Z,989.73
2018-07-23T07:14:46.079Z,989.73
2018-07-23T07:15:52.908Z,989.73
2018-07-23T07:16:59.842Z,989.75
2018-07-23T07:18:06.590Z,989.75
2018-07-23T07:19:13.316Z,989.82
2018-07-23T07:20:20.063Z,989.77
2018-07-23T07:21:26.914Z,989.89
2018-07-23T07:22:33.610Z,989.80
2018-07-23T07:23:40.378Z,989.83
2018-07-23T07:24:47.090Z,989.75
2018-07-23T07:25:53.823Z,989.79
2018-07-23T07:27:00.609Z,989.78
2018-07-23T07:28:07.356Z,989.81
2018-07-23T07:29:14.084Z,989.79
2018-07-23T07:30:20.838Z,989.77
2018-07-23T07:31:27.568Z,989.83
2018-07-23T07:32:35.301Z,989.83
2018-07-23T07:33:41.112Z,989.73
2018-07-23T07:34:47.909Z,989.76
2018-07-23T07:35:54.620Z,989.71
2018-07-23T07:37:01.415Z,989.71
2018-07-23T07:38:08.344Z,989.71
2018-07-23T07:39:15.011Z,989.65
2018-07-23T07:40:21.858Z,989.74
2018-07-23T07:41:28.579Z,989.71
2018-07-23T07:42:35.295Z,989.73
2018-07-23T07:43:42.063Z,989.73
2018-07-23T07:44:49.066Z,989.77
2018-07-23T07:45:55.791Z,989.72
2018-07-23T07:47:02.518Z,989.70
2018-07-23T07:48:09.502Z,989.72
2018-07-23T07:49:16.214Z,989.70
2018-07-23T07:50:22.920Z,989.66
2018-07-23T07:51:29.643Z,989.65
2018-07-23T07:52:36.442Z,989.66
2018-07-23T07:53:43.143Z,989.63
2018-07-23T07:54:49.850Z,989.59
2018-07-23T07:55:56.584Z,989.63
2018-07-23T07:57:03.277Z,989.62
2018-07-23T07:58:10.145Z,989.52
2018-07-23T07:59:16.874Z,989.58
2018-07-23T08:00:23.602Z,989.57
2018-07-23T08:01:30.442Z,989.56
2018-07-23T08:02:37.208Z,989.68
2018-07-23T08:03:43.911Z,989.64
2018-07-23T08:04:50.668Z,989.66
2018-07-23T08:05:57.459Z,989.63
2018-07-23T08:07:04.198Z,989.64
2018-07-23T08:08:10.927Z,989.65
2018-07-23T08:09:17.613Z,989.71
2018-07-23T08:10:24.364Z,989.68
2018-07-23T08:11:31.091Z,989.57
2018-07-23T08:12:37.997Z,989.60
2018-07-23T08:13:44.699Z,989.61
2018-07-23T08:14:51.528Z,989.61
2018-07-23T08:15:58.450Z,989.58
2018-07-23T08:17:05.129Z,989.55
2018-07-23T08:18:12.207Z,989.57
2018-07-23T08:19:18.919Z,989.62
2018-07-23T08:20:25.638Z,989.60
2018-07-23T08:21:32.387Z,989.60
2018-07-23T08:22:39.113Z,989.57
2018-07-23T08:23:45.939Z,989.60
2018-07-23T08:24:52.651Z,989.65
2018-07-23T08:25:59.406Z,989.55
2018-07-23T08:27:06.123Z,989.61
2018-07-23T08:28:12.867Z,989.58
2018-07-23T08:29:19.678Z,989.65
2018-07-23T08:30:26.386Z,989.64
2018-07-23T08:31:33.201Z,989.60
2018-07-23T08:32:39.841Z,989.63
2018-07-23T08:33:46.603Z,989.60
2018-07-23T08:34:53.462Z,989.67
2018-07-23T08:36:00.206Z,989.60
2018-07-23T08:37:07.350Z,989.72
2018-07-23T08:38:14.218Z,989.67
2018-07-23T08:39:21.064Z,989.65
2018-07-23T08:40:27.849Z,989.70
2018-07-23T08:41:34.735Z,989.68
2018-07-23T08:42:41.539Z,989.65
2018-07-23T08:43:48.369Z,989.70
2018-07-23T08:44:55.205Z,989.65
2018-07-23T08:46:02.118Z,989.72
2018-07-23T08:47:08.988Z,989.65
2018-07-23T08:48:15.775Z,989.66
2018-07-23T08:49:22.563Z,989.69
2018-07-23T08:50:29.312Z,989.64
2018-07-23T08:51:36.249Z,989.69
2018-07-23T08:52:43.031Z,989.67
2018-07-23T08:53:49.776Z,989.62
2018-07-23T08:54:56.601Z,989.66
2018-07-23T08:56:03.441Z,989.75
2018-07-23T08:57:10.243Z,989.74
2018-07-23T08:58:17.062Z,989.64
2018-07-23T08:59:24.931Z,989.74
2018-07-23T09:00:30.693Z,989.73
2018-07-23T09:01:37.483Z,989.68
2018-07-23T09:02:44.257Z,989.69
2018-07-23T09:03:51.216Z,989.77
2018-07-23T09:04:57.909Z,989.72
2018-07-23T09:06:04.718Z,989.71
2018-07-23T09:07:11.519Z,989.70
2018-07-23T09:08:18.342Z,989.71
2018-07-23T09:09:25.093Z,989.74
2018-07-23T09:10:31.804Z,989.72
2018-07-23T09:11:38.624Z,989.79
2018-07-23T09:12:45.518Z,989.75
2018-07-23T09:13:52.538Z,989.79
2018-07-23T09:14:59.322Z,989.78
2018-07-23T09:16:06.219Z,989.79
2018-07-23T09:17:13.092Z,989.79
2018-07-23T09:18:19.825Z,989.77
2018-07-23T09:19:26.622Z,989.84
2018-07-23T09:20:33.356Z,989.85
2018-07-23T09:21:40.094Z,989.75
2018-07-23T09:22:46.798Z,989.76
2018-07-23T09:23:53.647Z,989.74
2018-07-23T09:25:00.371Z,989.79
2018-07-23T09:26:07.604Z,989.79
2018-07-23T09:27:14.353Z,989.82
2018-07-23T09:28:21.133Z,989.77
2018-07-23T09:29:27.875Z,989.81
2018-07-23T09:30:34.627Z,989.84
2018-07-23T09:31:41.640Z,989.75
2018-07-23T09:32:48.342Z,989.75
2018-07-23T09:33:55.082Z,989.79
2018-07-23T09:35:01.804Z,989.81
2018-07-23T09:36:08.583Z,989.81
2018-07-23T09:37:15.419Z,989.82
2018-07-23T09:38:22.021Z,989.82
2018-07-23T09:39:29.003Z,989.80
2018-07-23T09:40:35.702Z,989.83
2018-07-23T09:41:42.444Z,989.85
2018-07-23T09:42:49.159Z,989.84
2018-07-23T09:43:55.849Z,989.83
2018-07-23T09:45:02.559Z,989.80
2018-07-23T09:46:09.328Z,989.81
2018-07-23T09:47:16.059Z,989.77
2018-07-23T09:48:23.070Z,989.87
2018-07-23T09:49:29.768Z,989.90
2018-07-23T09:50:36.481Z,989.84
2018-07-23T09:51:43.266Z,989.81
2018-07-23T09:52:49.982Z,989.77
2018-07-23T09:53:57.043Z,989.79
2018-07-23T09:55:03.762Z,989.82
2018-07-23T09:56:10.560Z,989.80
2018-07-23T09:57:17.281Z,989.84
2018-07-23T09:58:23.995Z,989.78
2018-07-23T09:59:30.711Z,989.82
2018-07-23T10:00:37.448Z,989.83
2018-07-23T10:01:44.299Z,989.87
2018-07-23T10:02:51.016Z,989.68
2018-07-23T10:03:58.061Z,989.67
2018-07-23T10:05:04.783Z,989.70
2018-07-23T10:06:11.633Z,989.68
2018-07-23T10:07:18.475Z,989.68
2018-07-23T10:08:25.155Z,989.70
2018-07-23T10:09:31.907Z,989.74
2018-07-23T10:10:38.630Z,989.65
2018-07-23T10:11:45.360Z,989.69
2018-07-23T10:12:52.157Z,989.69
2018-07-23T10:13:58.861Z,989.57
2018-07-23T10:15:05.595Z,989.67
2018-07-23T10:16:12.342Z,989.62
2018-07-23T10:17:19.075Z,989.62
2018-07-23T10:18:25.854Z,989.55
2018-07-23T10:19:32.707Z,989.59
2018-07-23T10:20:39.447Z,989.55
2018-07-23T10:21:46.319Z,989.53
2018-07-23T10:22:53.052Z,989.51
2018-07-23T10:23:59.766Z,989.59
2018-07-23T10:25:06.549Z,989.55
2018-07-23T10:26:13.394Z,989.54
2018-07-23T10:27:20.160Z,989.52
2018-07-23T10:28:26.906Z,989.45
2018-07-23T10:29:33.661Z,989.58
2018-07-23T10:30:40.442Z,989.56
2018-07-23T10:31:47.240Z,989.57
2018-07-23T10:32:53.971Z,989.62
2018-07-23T10:34:00.726Z,989.62
2018-07-23T10:35:07.573Z,989.60
2018-07-23T10:36:14.302Z,989.64
2018-07-23T10:37:21.087Z,989.62
2018-07-23T10:38:27.985Z,989.65
2018-07-23T10:39:34.695Z,989.54
2018-07-23T10:40:41.523Z,989.60
2018-07-23T10:41:48.396Z,989.57
2018-07-23T10:42:55.102Z,989.57
2018-07-23T10:44:02.189Z,989.56
2018-07-23T10:45:08.949Z,989.64
2018-07-23T10:46:15.707Z,989.55
2018-07-23T10:47:22.574Z,989.63
2018-07-23T10:48:29.406Z,989.62
2018-07-23T10:49:36.187Z,989.58
2018-07-23T10:50:43.091Z,989.59
2018-07-23T10:51:49.878Z,989.60
2018-07-23T10:52:56.587Z,989.68
2018-07-23T10:54:03.307Z,989.55
2018-07-23T10:55:10.088Z,989.62
2018-07-23T10:56:16.857Z,989.52
2018-07-23T10:57:23.647Z,989.57
2018-07-23T10:58:30.399Z,989.57
2018-07-23T10:59:37.158Z,989.62
2018-07-23T11:00:43.906Z,989.63
2018-07-23T11:01:50.610Z,989.60
2018-07-23T11:02:57.364Z,989.58
2018-07-23T11:04:04.098Z,989.55
2018-07-23T11:05:10.876Z,989.53
2018-07-23T11:06:17.657Z,989.51
2018-07-23T11:07:24.446Z,989.58
2018-07-23T11:08:31.444Z,989.59
2018-07-23T11:09:38.186Z,989.62
2018-07-23T11:10:44.905Z,989.63
2018-07-23T11:11:51.733Z,989.61
2018-07-23T11:12:58.542Z,989.57
2018-07-23T11:14:05.305Z,989.57
2018-07-23T11:15:12.030Z,989.59
2018-07-23T11:16:18.810Z,989.64
2018-07-23T11:17:25.527Z,989.59
2018-07-23T11:18:32.263Z,989.60
2018-07-23T11:19:39.009Z,989.57
2018-07-23T11:20:45.734Z,989.62
2018-07-23T11:21:52.546Z,989.58
2018-07-23T11:22:59.306Z,989.56
2018-07-23T11:24:06.128Z,989.57
2018-07-23T11:25:38.595Z,989.59
2018-07-23T11:26:19.684Z,989.60
2018-07-23T11:27:26.431Z,989.60
2018-07-23T11:28:33.201Z,989.52
2018-07-23T11:29:40.133Z,989.52
2018-07-23T11:30:46.839Z,989.53
2018-07-23T11:31:53.599Z,989.60
2018-07-23T11:33:00.341Z,989.55
2018-07-23T11:34:07.449Z,989.49
2018-07-23T11:35:14.294Z,989.52
2018-07-23T11:36:21.078Z,989.56
2018-07-23T11:37:27.983Z,989.59
2018-07-23T11:38:34.743Z,989.52
2018-07-23T11:39:41.463Z,989.51
2018-07-23T11:40:48.227Z,989.51
2018-07-23T11:41:55.018Z,989.54
2018-07-23T11:43:01.799Z,989.59
2018-07-23T11:44:08.725Z,989.64
2018-07-23T11:45:15.494Z,989.51
2018-07-23T11:46:24.987Z,989.58
2018-07-23T11:47:29.390Z,989.58
2018-07-23T11:48:36.154Z,989.48
2018-07-23T11:49:42.928Z,989.60
2018-07-23T11:50:49.715Z,989.48
2018-07-23T11:51:56.457Z,989.53
2018-07-23T11:53:03.191Z,989.57
2018-07-23T11:54:09.919Z,989.64
2018-07-23T11:55:16.666Z,989.57
2018-07-23T11:56:23.424Z,989.58
2018-07-23T11:57:30.247Z,989.56
2018-07-23T11:58:37.002Z,989.58
2018-07-23T11:59:43.733Z,989.56
2018-07-23T12:00:50.454Z,989.60
2018-07-23T12:01:57.388Z,989.66
2018-07-23T12:03:04.518Z,989.55
2018-07-23T12:04:11.264Z,989.57
2018-07-23T12:05:18.027Z,989.46
2018-07-23T12:06:24.798Z,989.48
2018-07-23T12:07:31.642Z,989.48
2018-07-23T12:08:38.420Z,989.46
2018-07-23T12:09:45.192Z,989.44
2018-07-23T12:10:51.962Z,989.50
2018-07-23T12:11:58.685Z,989.50
2018-07-23T12:13:05.492Z,989.46
2018-07-23T12:14:12.502Z,989.45
2018-07-23T12:15:19.215Z,989.46
2018-07-23T12:16:25.980Z,989.51
2018-07-23T12:17:32.757Z,989.44
2018-07-23T12:18:39.603Z,989.48
2018-07-23T12:19:46.382Z,989.45
2018-07-23T12:20:53.097Z,989.49
2018-07-23T12:21:59.825Z,989.45
2018-07-23T12:23:06.968Z,989.51
2018-07-23T12:24:13.703Z,989.45
2018-07-23T12:25:20.498Z,989.48
2018-07-23T12:26:27.237Z,989.46
2018-07-23T12:27:33.973Z,989.45
2018-07-23T12:28:40.706Z,989.44
2018-07-23T12:29:47.395Z,989.41
2018-07-23T12:30:54.395Z,989.47
2018-07-23T12:32:01.146Z,989.41
2018-07-23T12:33:07.869Z,989.44
2018-07-23T12:34:14.564Z,989.38
2018-07-23T12:35:21.359Z,989.43
2018-07-23T12:36:28.157Z,989.35
2018-07-23T12:37:34.905Z,989.38
2018-07-23T12:38:41.627Z,989.37
2018-07-23T12:39:48.410Z,989.41
2018-07-23T12:40:55.111Z,989.45
2018-07-23T12:42:01.809Z,989.40
2018-07-23T12:43:08.635Z,989.41
2018-07-23T12:44:15.371Z,989.40
2018-07-23T12:45:22.071Z,989.38
2018-07-23T12:46:28.862Z,989.40
2018-07-23T12:47:35.573Z,989.40
2018-07-23T12:48:42.311Z,989.35
2018-07-23T12:49:49.017Z,989.34
2018-07-23T12:50:55.752Z,989.33
2018-07-23T12:52:02.469Z,989.41
2018-07-23T12:53:09.250Z,989.31
2018-07-23T12:54:15.953Z,989.29
2018-07-23T12:55:22.655Z,989.36
2018-07-23T12:56:29.373Z,989.36
2018-07-23T12:57:36.555Z,989.33
2018-07-23T12:58:43.288Z,989.37
2018-07-23T12:59:50.027Z,989.35
2018-07-23T13:00:56.798Z,989.33
2018-07-23T13:02:03.515Z,989.32
2018-07-23T13:03:10.343Z,989.35
2018-07-23T13:04:17.043Z,989.29
2018-07-23T13:05:23.754Z,989.38
2018-07-23T13:06:30.910Z,989.38
2018-07-23T13:07:37.730Z,989.34
2018-07-23T13:08:44.451Z,989.31
2018-07-23T13:09:51.188Z,989.32
2018-07-23T13:10:57.870Z,989.34
2018-07-23T13:12:04.594Z,989.30
2018-07-23T13:13:11.518Z,989.23
2018-07-23T13:14:18.260Z,989.35
2018-07-23T13:15:24.986Z,989.28
2018-07-23T13:16:31.678Z,989.26
2018-07-23T13:17:38.438Z,989.37
2018-07-23T13:18:45.259Z,989.26
2018-07-23T13:19:51.995Z,989.37
2018-07-23T13:20:58.755Z,989.30
2018-07-23T13:22:05.487Z,989.35
2018-07-23T13:23:12.210Z,989.39
2018-07-23T13:24:18.981Z,989.32
2018-07-23T13:25:25.714Z,989.27
2018-07-23T13:26:32.457Z,989.33
2018-07-23T13:27:39.148Z,989.37
2018-07-23T13:28:45.910Z,989.33
2018-07-23T13:29:52.756Z,989.32
2018-07-23T13:30:59.455Z,989.33
2018-07-23T13:32:06.215Z,989.31
2018-07-23T13:33:12.969Z,989.31
2018-07-23T13:34:19.668Z,989.36
2018-07-23T13:35:26.620Z,989.35
2018-07-23T13:36:33.321Z,989.31
2018-07-23T13:37:40.091Z,989.37
2018-07-23T13:38:46.854Z,989.34
2018-07-23T13:39:53.655Z,989.36
2018-07-23T13:41:00.374Z,989.31
2018-07-23T13:42:07.155Z,989.29
2018-07-23T13:43:13.990Z,989.25
2018-07-23T13:44:20.786Z,989.33
2018-07-23T13:45:27.491Z,989.31
2018-07-23T13:46:34.207Z,989.31
2018-07-23T13:47:40.917Z,989.33
2018-07-23T13:48:47.652Z,989.30
2018-07-23T13:49:54.354Z,989.33
2018-07-23T13:51:01.079Z,989.32
2018-07-23T13:52:07.921Z,989.29